PRJOK SBPK-SBSP
Flight info
| Callsign | PRJOK |
|---|---|
| Flight time | N/A |
| Altitude | 13000 |
| Route | ANISE |
| Aircraft | BE58/L-SDFGRY/C |
Departure
| Time | 2026-05-07 19:59 |
|---|---|
| Airport | João Simões Lopes Neto International Airport (SBPK) |
Arrival
| Time | N/A |
|---|---|
| Airport | Congonhas–Deputado Freitas Nobre Airport (SBSP) |
| Time | Latitude | Longitude | Altitude | Speed | Heading |
|---|---|---|---|---|---|
| 2026-05-07 19:53 | -31.71616 | -52.33002 | 60 ft | 0 kts | 218° |
| 2026-05-07 19:53 | -31.71618 | -52.33003 | 60 ft | 3 kts | 218° |
| 2026-05-07 19:54 | -31.71670 | -52.33046 | 58 ft | 15 kts | 215° |
| 2026-05-07 19:54 | -31.71777 | -52.32983 | 59 ft | 24 kts | 144° |
| 2026-05-07 19:54 | -31.71894 | -52.33051 | 58 ft | 34 kts | 234° |
| 2026-05-07 19:54 | -31.72083 | -52.33325 | 61 ft | 46 kts | 232° |
| 2026-05-07 19:55 | -31.72130 | -52.33397 | 61 ft | 0 kts | 232° |
| 2026-05-07 19:56 | -31.72161 | -52.33438 | 62 ft | 12 kts | 245° |
| 2026-05-07 19:56 | -31.72191 | -52.33459 | 62 ft | 7 kts | 65° |
| 2026-05-07 19:57 | -31.72134 | -52.33393 | 57 ft | 17 kts | 51° |
| 2026-05-07 19:57 | -31.72121 | -52.33373 | 58 ft | 0 kts | 52° |
| 2026-05-07 19:58 | -31.72090 | -52.33330 | 61 ft | 36 kts | 50° |
| 2026-05-07 19:58 | -31.71779 | -52.32853 | 92 ft | 101 kts | 46° |
| 2026-05-07 19:58 | -31.71294 | -52.32137 | 316 ft | 119 kts | 44° |
| 2026-05-07 19:59 | -31.70796 | -52.31432 | 694 ft | 106 kts | 33° |
| 2026-05-07 19:59 | -31.70217 | -52.30877 | 881 ft | 106 kts | 26° |
| 2026-05-07 19:59 | -31.69596 | -52.30446 | 1023 ft | 108 kts | 32° |
| 2026-05-07 19:59 | -31.68990 | -52.29871 | 1231 ft | 114 kts | 26° |
| 2026-05-07 20:00 | -31.68358 | -52.29309 | 1428 ft | 117 kts | 25° |
| 2026-05-07 20:00 | -31.67695 | -52.28720 | 1631 ft | 120 kts | 24° |
| 2026-05-07 20:00 | -31.67033 | -52.28138 | 1828 ft | 117 kts | 24° |
| 2026-05-07 20:00 | -31.66388 | -52.27568 | 2020 ft | 116 kts | 23° |
| 2026-05-07 20:01 | -31.65744 | -52.27000 | 2204 ft | 115 kts | 24° |
| 2026-05-07 20:01 | -31.65109 | -52.26446 | 2399 ft | 116 kts | 22° |
| 2026-05-07 20:01 | -31.64457 | -52.25877 | 2595 ft | 115 kts | 21° |
| 2026-05-07 20:01 | -31.63821 | -52.25323 | 2786 ft | 112 kts | 20° |
| 2026-05-07 20:02 | -31.63200 | -52.24783 | 2971 ft | 111 kts | 20° |
| 2026-05-07 20:02 | -31.62585 | -52.24247 | 3157 ft | 109 kts | 19° |
| 2026-05-07 20:02 | -31.61990 | -52.23726 | 3341 ft | 105 kts | 18° |
| 2026-05-07 20:02 | -31.61417 | -52.23225 | 3523 ft | 102 kts | 17° |
| 2026-05-07 20:03 | -31.60855 | -52.22735 | 3716 ft | 99 kts | 15° |
| 2026-05-07 20:03 | -31.60303 | -52.22260 | 3902 ft | 101 kts | 15° |
| 2026-05-07 20:03 | -31.59727 | -52.21763 | 4097 ft | 103 kts | 15° |
| 2026-05-07 20:03 | -31.59149 | -52.21259 | 4298 ft | 104 kts | 13° |
| 2026-05-07 20:04 | -31.58557 | -52.20743 | 4491 ft | 106 kts | 13° |
| 2026-05-07 20:04 | -31.57967 | -52.20230 | 4684 ft | 107 kts | 13° |
| 2026-05-07 20:04 | -31.57372 | -52.19714 | 4866 ft | 107 kts | 13° |
| 2026-05-07 20:04 | -31.56767 | -52.19189 | 5067 ft | 108 kts | 13° |
| 2026-05-07 20:05 | -31.56168 | -52.18667 | 5256 ft | 109 kts | 14° |
| 2026-05-07 20:05 | -31.55557 | -52.18134 | 5455 ft | 110 kts | 14° |
| 2026-05-07 20:05 | -31.54949 | -52.17605 | 5644 ft | 110 kts | 14° |
| 2026-05-07 20:05 | -31.54335 | -52.17068 | 5843 ft | 109 kts | 15° |
| 2026-05-07 20:06 | -31.53727 | -52.16541 | 6038 ft | 110 kts | 14° |
| 2026-05-07 20:06 | -31.53316 | -52.16183 | 6154 ft | 110 kts | 15° |
| 2026-05-07 20:06 | -31.52704 | -52.15654 | 6341 ft | 110 kts | 14° |
| 2026-05-07 20:06 | -31.51875 | -52.14935 | 6597 ft | 113 kts | 16° |
| 2026-05-07 20:07 | -31.51453 | -52.14566 | 6722 ft | 115 kts | 15° |
| 2026-05-07 20:07 | -31.50589 | -52.13817 | 6979 ft | 117 kts | 16° |
| 2026-05-07 20:07 | -31.50150 | -52.13435 | 7113 ft | 118 kts | 16° |
| 2026-05-07 20:07 | -31.49482 | -52.12855 | 7307 ft | 119 kts | 17° |
| 2026-05-07 20:08 | -31.48817 | -52.12276 | 7492 ft | 120 kts | 17° |
| 2026-05-07 20:08 | -31.48154 | -52.11699 | 7696 ft | 119 kts | 17° |
| 2026-05-07 20:08 | -31.47482 | -52.11118 | 7889 ft | 120 kts | 17° |
| 2026-05-07 20:08 | -31.46814 | -52.10532 | 8084 ft | 121 kts | 18° |
| 2026-05-07 20:09 | -31.46125 | -52.09934 | 8285 ft | 123 kts | 18° |
| 2026-05-07 20:09 | -31.45442 | -52.09340 | 8481 ft | 124 kts | 19° |
| 2026-05-07 20:09 | -31.44752 | -52.08739 | 8683 ft | 124 kts | 19° |
| 2026-05-07 20:10 | -31.43343 | -52.07523 | 9094 ft | 127 kts | 20° |
| 2026-05-07 20:10 | -31.42635 | -52.06909 | 9293 ft | 127 kts | 20° |
| 2026-05-07 20:10 | -31.41923 | -52.06292 | 9494 ft | 128 kts | 20° |
| 2026-05-07 20:10 | -31.41216 | -52.05678 | 9679 ft | 128 kts | 20° |
| 2026-05-07 20:11 | -31.40496 | -52.05054 | 9864 ft | 128 kts | 20° |
| 2026-05-07 20:11 | -31.39797 | -52.04448 | 10047 ft | 127 kts | 19° |
| 2026-05-07 20:11 | -31.39079 | -52.03829 | 10234 ft | 127 kts | 19° |
| 2026-05-07 20:11 | -31.38368 | -52.03214 | 10428 ft | 126 kts | 19° |
| 2026-05-07 20:12 | -31.37666 | -52.02606 | 10611 ft | 126 kts | 19° |
| 2026-05-07 20:12 | -31.36961 | -52.01993 | 10800 ft | 126 kts | 20° |
| 2026-05-07 20:12 | -31.36266 | -52.01391 | 10988 ft | 125 kts | 19° |
| 2026-05-07 20:12 | -31.35568 | -52.00788 | 11176 ft | 125 kts | 19° |
| 2026-05-07 20:13 | -31.34878 | -52.00186 | 11367 ft | 122 kts | 19° |
| 2026-05-07 20:13 | -31.34208 | -51.99609 | 11554 ft | 119 kts | 18° |
| 2026-05-07 20:13 | -31.33538 | -51.99033 | 11730 ft | 119 kts | 18° |
| 2026-05-07 20:13 | -31.32862 | -51.98458 | 11854 ft | 122 kts | 18° |
| 2026-05-07 20:14 | -31.32177 | -51.97869 | 11981 ft | 124 kts | 19° |
| 2026-05-07 20:14 | -31.31483 | -51.97269 | 12110 ft | 125 kts | 19° |
| 2026-05-07 20:14 | -31.30789 | -51.96668 | 12237 ft | 125 kts | 19° |
| 2026-05-07 20:14 | -31.30083 | -51.96056 | 12364 ft | 125 kts | 19° |
| 2026-05-07 20:15 | -31.29382 | -51.95451 | 12489 ft | 125 kts | 19° |
| 2026-05-07 20:15 | -31.28693 | -51.94855 | 12606 ft | 125 kts | 19° |
| 2026-05-07 20:15 | -31.27970 | -51.94237 | 12605 ft | 132 kts | 19° |
| 2026-05-07 20:15 | -31.27219 | -51.93579 | 12611 ft | 136 kts | 21° |
| 2026-05-07 20:16 | -31.26458 | -51.92920 | 12624 ft | 139 kts | 20° |
| 2026-05-07 20:16 | -31.25663 | -51.92238 | 12623 ft | 143 kts | 21° |
| 2026-05-07 20:16 | -31.24862 | -51.91546 | 12626 ft | 146 kts | 22° |
| 2026-05-07 20:16 | -31.24033 | -51.90830 | 12626 ft | 148 kts | 22° |
| 2026-05-07 20:17 | -31.23206 | -51.90115 | 12622 ft | 149 kts | 22° |
| 2026-05-07 20:17 | -31.22362 | -51.89388 | 12626 ft | 151 kts | 22° |
| 2026-05-07 20:17 | -31.21521 | -51.88663 | 12624 ft | 152 kts | 22° |
| 2026-05-07 20:17 | -31.20678 | -51.87935 | 12628 ft | 152 kts | 22° |
| 2026-05-07 20:18 | -31.19819 | -51.87196 | 12627 ft | 153 kts | 22° |
| 2026-05-07 20:18 | -31.18961 | -51.86457 | 12627 ft | 154 kts | 22° |
| 2026-05-07 20:18 | -31.18105 | -51.85719 | 12628 ft | 154 kts | 22° |
| 2026-05-07 20:18 | -31.17236 | -51.84971 | 12629 ft | 154 kts | 22° |
| 2026-05-07 20:19 | -31.16380 | -51.84235 | 12627 ft | 154 kts | 22° |
| 2026-05-07 20:19 | -31.15513 | -51.83490 | 12624 ft | 154 kts | 22° |
| 2026-05-07 20:19 | -31.14658 | -51.82754 | 12625 ft | 154 kts | 22° |
| 2026-05-07 20:19 | -31.13789 | -51.82007 | 12629 ft | 154 kts | 22° |
| 2026-05-07 20:20 | -31.12932 | -51.81270 | 12623 ft | 154 kts | 22° |
| 2026-05-07 20:20 | -31.12069 | -51.80529 | 12626 ft | 155 kts | 22° |
| 2026-05-07 20:20 | -31.11195 | -51.79778 | 12626 ft | 155 kts | 22° |
| 2026-05-07 20:20 | -31.10336 | -51.79040 | 12624 ft | 155 kts | 22° |
| 2026-05-07 20:21 | -31.09459 | -51.78287 | 12626 ft | 155 kts | 22° |
| 2026-05-07 20:21 | -31.08593 | -51.77544 | 12626 ft | 155 kts | 22° |
| 2026-05-07 20:21 | -31.07727 | -51.76801 | 12625 ft | 155 kts | 22° |
| 2026-05-07 20:21 | -31.06856 | -51.76053 | 12623 ft | 155 kts | 22° |
| 2026-05-07 20:22 | -31.05984 | -51.75304 | 12625 ft | 155 kts | 22° |
| 2026-05-07 20:22 | -31.05111 | -51.74556 | 12623 ft | 155 kts | 22° |
| 2026-05-07 20:22 | -31.04251 | -51.73819 | 12625 ft | 155 kts | 22° |
| 2026-05-07 20:22 | -31.03380 | -51.73073 | 12623 ft | 155 kts | 22° |
| 2026-05-07 20:23 | -31.02520 | -51.72335 | 12624 ft | 154 kts | 22° |
| 2026-05-07 20:23 | -31.01659 | -51.71597 | 12628 ft | 154 kts | 22° |
| 2026-05-07 20:23 | -31.00789 | -51.70852 | 12629 ft | 154 kts | 22° |
| 2026-05-07 20:23 | -30.99923 | -51.70110 | 12629 ft | 154 kts | 22° |
| 2026-05-07 20:24 | -30.99063 | -51.69373 | 12629 ft | 154 kts | 22° |
| 2026-05-07 20:24 | -30.98203 | -51.68637 | 12630 ft | 154 kts | 22° |
| 2026-05-07 20:24 | -30.97339 | -51.67900 | 12632 ft | 154 kts | 22° |
| 2026-05-07 20:24 | -30.96466 | -51.67159 | 12632 ft | 154 kts | 22° |
| 2026-05-07 20:25 | -30.95609 | -51.66428 | 12630 ft | 155 kts | 22° |
| 2026-05-07 20:25 | -30.94743 | -51.65685 | 12632 ft | 155 kts | 22° |
| 2026-05-07 20:25 | -30.93878 | -51.64943 | 12634 ft | 154 kts | 22° |
| 2026-05-07 20:25 | -30.93012 | -51.64200 | 12632 ft | 154 kts | 22° |
| 2026-05-07 20:26 | -30.92148 | -51.63462 | 12632 ft | 154 kts | 22° |
| 2026-05-07 20:26 | -30.91276 | -51.62718 | 12637 ft | 154 kts | 22° |
| 2026-05-07 20:26 | -30.90416 | -51.61983 | 12640 ft | 154 kts | 22° |
| 2026-05-07 20:26 | -30.89545 | -51.61242 | 12638 ft | 154 kts | 22° |
| 2026-05-07 20:27 | -30.88686 | -51.60508 | 12638 ft | 154 kts | 22° |
| 2026-05-07 20:27 | -30.87811 | -51.59763 | 12643 ft | 154 kts | 22° |
| 2026-05-07 20:27 | -30.86948 | -51.59028 | 12646 ft | 155 kts | 23° |
| 2026-05-07 20:27 | -30.86081 | -51.58282 | 12647 ft | 155 kts | 22° |
| 2026-05-07 20:28 | -30.85214 | -51.57543 | 12646 ft | 155 kts | 22° |
| 2026-05-07 20:28 | -30.84339 | -51.56802 | 12647 ft | 156 kts | 22° |
| 2026-05-07 20:28 | -30.83459 | -51.56054 | 12645 ft | 156 kts | 22° |
| 2026-05-07 20:28 | -30.82593 | -51.55316 | 12649 ft | 156 kts | 22° |
| 2026-05-07 20:29 | -30.81713 | -51.54565 | 12642 ft | 156 kts | 22° |
| 2026-05-07 20:29 | -30.80843 | -51.53825 | 12648 ft | 156 kts | 22° |
| 2026-05-07 20:29 | -30.79974 | -51.53083 | 12653 ft | 155 kts | 22° |
| 2026-05-07 20:29 | -30.79096 | -51.52330 | 12650 ft | 155 kts | 23° |
| 2026-05-07 20:30 | -30.78231 | -51.51591 | 12648 ft | 155 kts | 22° |
| 2026-05-07 20:30 | -30.77354 | -51.50845 | 12648 ft | 155 kts | 22° |
| 2026-05-07 20:30 | -30.76496 | -51.50113 | 12648 ft | 155 kts | 23° |
| 2026-05-07 20:30 | -30.75618 | -51.49366 | 12651 ft | 155 kts | 22° |
| 2026-05-07 20:31 | -30.74749 | -51.48630 | 12652 ft | 155 kts | 23° |
| 2026-05-07 20:31 | -30.73884 | -51.47892 | 12654 ft | 155 kts | 23° |
| 2026-05-07 20:31 | -30.73011 | -51.47143 | 12649 ft | 155 kts | 23° |
| 2026-05-07 20:31 | -30.72145 | -51.46407 | 12653 ft | 155 kts | 22° |
| 2026-05-07 20:32 | -30.71278 | -51.45672 | 12651 ft | 155 kts | 22° |
| 2026-05-07 20:32 | -30.70408 | -51.44934 | 12648 ft | 155 kts | 22° |
| 2026-05-07 20:32 | -30.69530 | -51.44189 | 12656 ft | 155 kts | 22° |
| 2026-05-07 20:32 | -30.68668 | -51.43458 | 12651 ft | 155 kts | 23° |
| 2026-05-07 20:33 | -30.67792 | -51.42715 | 12657 ft | 155 kts | 22° |
| 2026-05-07 20:33 | -30.66929 | -51.41982 | 12656 ft | 154 kts | 22° |
| 2026-05-07 20:33 | -30.66063 | -51.41252 | 12661 ft | 154 kts | 22° |
| 2026-05-07 20:33 | -30.65202 | -51.40521 | 12659 ft | 154 kts | 23° |
| 2026-05-07 20:34 | -30.64331 | -51.39783 | 12659 ft | 153 kts | 22° |
| 2026-05-07 20:34 | -30.63471 | -51.39056 | 12662 ft | 154 kts | 22° |
| 2026-05-07 20:34 | -30.62614 | -51.38325 | 12662 ft | 153 kts | 22° |
| 2026-05-07 20:34 | -30.61750 | -51.37590 | 12661 ft | 154 kts | 22° |
| 2026-05-07 20:35 | -30.60882 | -51.36856 | 12663 ft | 154 kts | 22° |
| 2026-05-07 20:35 | -30.60013 | -51.36118 | 12665 ft | 154 kts | 23° |
| 2026-05-07 20:35 | -30.59153 | -51.35384 | 12660 ft | 155 kts | 23° |
| 2026-05-07 20:35 | -30.58279 | -51.34640 | 12660 ft | 155 kts | 23° |
| 2026-05-07 20:36 | -30.57418 | -51.33911 | 12664 ft | 155 kts | 22° |
| 2026-05-07 20:36 | -30.56551 | -51.33177 | 12664 ft | 155 kts | 23° |
| 2026-05-07 20:36 | -30.55671 | -51.32432 | 12663 ft | 155 kts | 23° |
| 2026-05-07 20:36 | -30.54808 | -51.31702 | 12667 ft | 155 kts | 23° |
| 2026-05-07 20:37 | -30.53944 | -51.30971 | 12668 ft | 154 kts | 23° |
| 2026-05-07 20:37 | -30.53069 | -51.30231 | 12667 ft | 154 kts | 23° |
| 2026-05-07 20:37 | -30.52204 | -51.29499 | 12670 ft | 154 kts | 23° |
| 2026-05-07 20:37 | -30.51335 | -51.28765 | 12668 ft | 154 kts | 23° |
| 2026-05-07 20:38 | -30.50473 | -51.28036 | 12667 ft | 154 kts | 23° |
| 2026-05-07 20:38 | -30.49611 | -51.27306 | 12669 ft | 153 kts | 22° |
| 2026-05-07 20:38 | -30.48751 | -51.26581 | 12671 ft | 153 kts | 22° |
| 2026-05-07 20:38 | -30.47883 | -51.25852 | 12670 ft | 154 kts | 22° |
| 2026-05-07 20:39 | -30.47015 | -51.25123 | 12669 ft | 154 kts | 23° |
| 2026-05-07 20:39 | -30.46162 | -51.24399 | 12674 ft | 154 kts | 23° |
| 2026-05-07 20:39 | -30.45287 | -51.23657 | 12671 ft | 155 kts | 23° |
| 2026-05-07 20:39 | -30.44416 | -51.22921 | 12677 ft | 155 kts | 22° |
| 2026-05-07 20:40 | -30.43549 | -51.22192 | 12675 ft | 155 kts | 23° |
| 2026-05-07 20:40 | -30.42670 | -51.21449 | 12673 ft | 155 kts | 22° |
| 2026-05-07 20:40 | -30.41804 | -51.20724 | 12672 ft | 156 kts | 22° |
| 2026-05-07 20:40 | -30.40931 | -51.19990 | 12673 ft | 155 kts | 22° |
| 2026-05-07 20:41 | -30.40050 | -51.19247 | 12674 ft | 155 kts | 22° |
| 2026-05-07 20:41 | -30.39179 | -51.18511 | 12676 ft | 155 kts | 22° |
| 2026-05-07 20:41 | -30.38305 | -51.17772 | 12676 ft | 156 kts | 23° |
| 2026-05-07 20:41 | -30.37437 | -51.17041 | 12675 ft | 156 kts | 23° |
| 2026-05-07 20:42 | -30.36559 | -51.16301 | 12679 ft | 156 kts | 23° |
| 2026-05-07 20:42 | -30.35688 | -51.15572 | 12684 ft | 156 kts | 22° |
| 2026-05-07 20:42 | -30.34816 | -51.14836 | 12680 ft | 156 kts | 23° |
| 2026-05-07 20:42 | -30.33935 | -51.14097 | 12678 ft | 156 kts | 22° |
| 2026-05-07 20:43 | -30.33048 | -51.13353 | 12680 ft | 156 kts | 23° |
| 2026-05-07 20:43 | -30.32179 | -51.12622 | 12681 ft | 157 kts | 23° |
| 2026-05-07 20:43 | -30.31283 | -51.11871 | 12681 ft | 157 kts | 23° |
| 2026-05-07 20:43 | -30.30424 | -51.11147 | 12681 ft | 157 kts | 23° |
| 2026-05-07 20:44 | -30.29546 | -51.10411 | 12679 ft | 157 kts | 23° |
| 2026-05-07 20:44 | -30.28659 | -51.09655 | 12682 ft | 158 kts | 24° |
| 2026-05-07 20:44 | -30.27771 | -51.08907 | 12678 ft | 157 kts | 22° |
| 2026-05-07 20:44 | -30.26897 | -51.08180 | 12684 ft | 157 kts | 23° |
| 2026-05-07 20:45 | -30.26009 | -51.07435 | 12680 ft | 157 kts | 23° |
| 2026-05-07 20:45 | -30.25124 | -51.06692 | 12681 ft | 157 kts | 22° |
| 2026-05-07 20:45 | -30.24242 | -51.05941 | 12679 ft | 158 kts | 24° |
| 2026-05-07 20:45 | -30.23365 | -51.05198 | 12682 ft | 158 kts | 24° |
| 2026-05-07 20:46 | -30.22471 | -51.04450 | 12682 ft | 157 kts | 22° |
| 2026-05-07 20:46 | -30.21587 | -51.03721 | 12683 ft | 158 kts | 24° |
| 2026-05-07 20:46 | -30.20719 | -51.02997 | 12684 ft | 157 kts | 22° |
| 2026-05-07 20:46 | -30.19833 | -51.02264 | 12682 ft | 158 kts | 24° |
| 2026-05-07 20:47 | -30.18940 | -51.01511 | 12681 ft | 158 kts | 23° |
| 2026-05-07 20:47 | -30.18055 | -51.00770 | 12682 ft | 158 kts | 23° |
| 2026-05-07 20:47 | -30.17162 | -51.00021 | 12681 ft | 157 kts | 23° |
| 2026-05-07 20:47 | -30.16293 | -50.99289 | 12685 ft | 156 kts | 22° |
| 2026-05-07 20:48 | -30.15406 | -50.98548 | 12682 ft | 157 kts | 23° |
| 2026-05-07 20:48 | -30.14525 | -50.97809 | 12681 ft | 157 kts | 23° |
| 2026-05-07 20:48 | -30.13632 | -50.97058 | 12683 ft | 157 kts | 23° |
| 2026-05-07 20:48 | -30.12754 | -50.96321 | 12682 ft | 157 kts | 23° |
| 2026-05-07 20:49 | -30.11879 | -50.95588 | 12683 ft | 157 kts | 23° |
| 2026-05-07 20:49 | -30.10990 | -50.94845 | 12683 ft | 157 kts | 23° |
| 2026-05-07 20:49 | -30.10108 | -50.94109 | 12685 ft | 157 kts | 23° |
| 2026-05-07 20:49 | -30.09219 | -50.93364 | 12685 ft | 157 kts | 23° |
| 2026-05-07 20:50 | -30.08340 | -50.92628 | 12686 ft | 157 kts | 23° |
| 2026-05-07 20:50 | -30.07449 | -50.91884 | 12685 ft | 157 kts | 23° |
| 2026-05-07 20:50 | -30.06570 | -50.91148 | 12686 ft | 157 kts | 23° |
| 2026-05-07 20:50 | -30.05685 | -50.90408 | 12686 ft | 157 kts | 23° |
| 2026-05-07 20:51 | -30.04796 | -50.89665 | 12687 ft | 158 kts | 23° |
| 2026-05-07 20:51 | -30.03905 | -50.88919 | 12688 ft | 158 kts | 24° |
| 2026-05-07 20:51 | -30.03008 | -50.88171 | 12684 ft | 158 kts | 23° |
| 2026-05-07 20:51 | -30.02131 | -50.87442 | 12691 ft | 158 kts | 23° |
| 2026-05-07 20:52 | -30.01236 | -50.86697 | 12687 ft | 158 kts | 24° |
| 2026-05-07 20:52 | -30.00346 | -50.85951 | 12691 ft | 158 kts | 24° |
| 2026-05-07 20:52 | -29.99454 | -50.85205 | 12695 ft | 158 kts | 23° |
| 2026-05-07 20:52 | -29.98563 | -50.84464 | 12698 ft | 158 kts | 23° |
| 2026-05-07 20:53 | -29.97672 | -50.83720 | 12694 ft | 158 kts | 24° |
| 2026-05-07 20:53 | -29.96781 | -50.82980 | 12697 ft | 158 kts | 23° |
| 2026-05-07 20:53 | -29.95893 | -50.82239 | 12700 ft | 158 kts | 24° |
| 2026-05-07 20:53 | -29.95003 | -50.81494 | 12700 ft | 158 kts | 24° |
| 2026-05-07 20:54 | -29.94112 | -50.80753 | 12702 ft | 158 kts | 23° |
| 2026-05-07 20:54 | -29.93219 | -50.80009 | 12703 ft | 158 kts | 23° |
| 2026-05-07 20:54 | -29.92325 | -50.79263 | 12706 ft | 158 kts | 24° |
| 2026-05-07 20:54 | -29.91434 | -50.78521 | 12708 ft | 158 kts | 23° |
| 2026-05-07 20:55 | -29.90544 | -50.77780 | 12707 ft | 158 kts | 23° |
| 2026-05-07 20:55 | -29.89664 | -50.77046 | 12712 ft | 158 kts | 23° |
| 2026-05-07 20:55 | -29.88759 | -50.76294 | 12712 ft | 158 kts | 24° |
| 2026-05-07 20:55 | -29.87880 | -50.75563 | 12717 ft | 158 kts | 24° |
| 2026-05-07 20:56 | -29.86985 | -50.74821 | 12715 ft | 158 kts | 23° |
| 2026-05-07 20:56 | -29.86084 | -50.74073 | 12717 ft | 158 kts | 24° |
| 2026-05-07 20:56 | -29.85199 | -50.73337 | 12720 ft | 158 kts | 23° |
| 2026-05-07 20:56 | -29.84311 | -50.72599 | 12727 ft | 158 kts | 24° |
| 2026-05-07 20:57 | -29.83415 | -50.71853 | 12723 ft | 158 kts | 23° |
| 2026-05-07 20:57 | -29.82525 | -50.71115 | 12726 ft | 158 kts | 23° |
| 2026-05-07 20:57 | -29.81641 | -50.70380 | 12731 ft | 157 kts | 23° |
| 2026-05-07 20:57 | -29.80758 | -50.69644 | 12728 ft | 156 kts | 24° |
| 2026-05-07 20:58 | -29.79893 | -50.68924 | 12729 ft | 153 kts | 23° |
| 2026-05-07 20:58 | -29.79034 | -50.68211 | 12736 ft | 149 kts | 23° |
| 2026-05-07 20:58 | -29.78193 | -50.67516 | 12739 ft | 152 kts | 22° |
| 2026-05-07 20:58 | -29.77318 | -50.66792 | 12742 ft | 155 kts | 24° |
| 2026-05-07 20:59 | -29.76447 | -50.66069 | 12745 ft | 157 kts | 23° |
| 2026-05-07 20:59 | -29.75559 | -50.65332 | 12752 ft | 159 kts | 24° |
| 2026-05-07 20:59 | -29.74664 | -50.64587 | 12756 ft | 159 kts | 24° |
| 2026-05-07 20:59 | -29.73768 | -50.63841 | 12759 ft | 159 kts | 24° |
| 2026-05-07 21:00 | -29.72872 | -50.63093 | 12759 ft | 159 kts | 24° |
| 2026-05-07 21:00 | -29.71966 | -50.62342 | 12759 ft | 160 kts | 24° |
| 2026-05-07 21:00 | -29.71068 | -50.61599 | 12754 ft | 159 kts | 23° |
| 2026-05-07 21:00 | -29.70178 | -50.60865 | 12754 ft | 160 kts | 23° |
| 2026-05-07 21:01 | -29.69274 | -50.60115 | 12757 ft | 159 kts | 24° |
| 2026-05-07 21:01 | -29.68384 | -50.59379 | 12760 ft | 159 kts | 23° |
| 2026-05-07 21:01 | -29.67486 | -50.58638 | 12759 ft | 159 kts | 23° |
| 2026-05-07 21:01 | -29.66575 | -50.57887 | 12761 ft | 160 kts | 23° |
| 2026-05-07 21:02 | -29.65674 | -50.57141 | 12757 ft | 160 kts | 23° |
| 2026-05-07 21:02 | -29.64779 | -50.56398 | 12757 ft | 159 kts | 23° |
| 2026-05-07 21:02 | -29.63893 | -50.55662 | 12757 ft | 157 kts | 23° |
| 2026-05-07 21:02 | -29.63017 | -50.54937 | 12763 ft | 153 kts | 22° |
| 2026-05-07 21:03 | -29.62147 | -50.54222 | 12767 ft | 154 kts | 22° |
| 2026-05-07 21:03 | -29.61279 | -50.53504 | 12767 ft | 156 kts | 23° |
| 2026-05-07 21:03 | -29.60389 | -50.52768 | 12768 ft | 158 kts | 23° |
| 2026-05-07 21:03 | -29.59503 | -50.52035 | 12764 ft | 157 kts | 23° |
| 2026-05-07 21:04 | -29.58614 | -50.51296 | 12770 ft | 159 kts | 23° |
| 2026-05-07 21:04 | -29.57718 | -50.50553 | 12780 ft | 158 kts | 24° |
| 2026-05-07 21:04 | -29.56819 | -50.49813 | 12779 ft | 160 kts | 24° |
| 2026-05-07 21:04 | -29.55919 | -50.49070 | 12773 ft | 158 kts | 22° |
| 2026-05-07 21:05 | -29.55040 | -50.48341 | 12785 ft | 157 kts | 23° |
| 2026-05-07 21:05 | -29.54140 | -50.47600 | 12779 ft | 159 kts | 23° |
| 2026-05-07 21:05 | -29.53238 | -50.46856 | 12773 ft | 159 kts | 22° |
| 2026-05-07 21:05 | -29.52353 | -50.46124 | 12788 ft | 157 kts | 23° |
| 2026-05-07 21:06 | -29.51470 | -50.45396 | 12774 ft | 156 kts | 23° |
| 2026-05-07 21:06 | -29.50600 | -50.44678 | 12782 ft | 155 kts | 23° |
| 2026-05-07 21:06 | -29.49740 | -50.43965 | 12778 ft | 149 kts | 22° |
| 2026-05-07 21:06 | -29.48892 | -50.43276 | 12806 ft | 152 kts | 22° |
| 2026-05-07 21:07 | -29.48016 | -50.42559 | 12891 ft | 161 kts | 24° |
| 2026-05-07 21:07 | -29.47062 | -50.41777 | 12792 ft | 170 kts | 24° |
| 2026-05-07 21:07 | -29.46116 | -50.40988 | 12811 ft | 169 kts | 24° |
| 2026-05-07 21:07 | -29.45158 | -50.40196 | 12809 ft | 170 kts | 25° |
| 2026-05-07 21:08 | -29.44202 | -50.39409 | 12807 ft | 169 kts | 24° |
| 2026-05-07 21:08 | -29.43246 | -50.38620 | 12801 ft | 166 kts | 24° |
| 2026-05-07 21:08 | -29.42620 | -50.38108 | 12806 ft | 164 kts | 24° |
| 2026-05-07 21:08 | -29.41708 | -50.37361 | 12801 ft | 163 kts | 24° |
| 2026-05-07 21:09 | -29.40484 | -50.36358 | 12800 ft | 162 kts | 23° |
| 2026-05-07 21:09 | -29.39872 | -50.35854 | 12795 ft | 162 kts | 24° |
| 2026-05-07 21:09 | -29.38965 | -50.35107 | 12807 ft | 161 kts | 24° |
| 2026-05-07 21:09 | -29.37755 | -50.34111 | 12795 ft | 161 kts | 23° |
| 2026-05-07 21:10 | -29.37137 | -50.33604 | 12798 ft | 161 kts | 23° |
| 2026-05-07 21:10 | -29.36238 | -50.32865 | 12796 ft | 161 kts | 23° |
| 2026-05-07 21:10 | -29.35316 | -50.32108 | 12800 ft | 161 kts | 23° |
| 2026-05-07 21:10 | -29.34418 | -50.31370 | 12800 ft | 160 kts | 24° |
| 2026-05-07 21:11 | -29.33509 | -50.30625 | 12797 ft | 160 kts | 23° |
| 2026-05-07 21:11 | -29.32605 | -50.29885 | 12802 ft | 160 kts | 23° |
| 2026-05-07 21:11 | -29.30803 | -50.28406 | 12806 ft | 159 kts | 24° |
| 2026-05-07 21:12 | -29.29912 | -50.27675 | 12807 ft | 159 kts | 24° |
| 2026-05-07 21:12 | -29.29005 | -50.26932 | 12807 ft | 160 kts | 24° |
| 2026-05-07 21:12 | -29.28107 | -50.26195 | 12810 ft | 160 kts | 23° |
| 2026-05-07 21:12 | -29.27203 | -50.25454 | 12814 ft | 161 kts | 24° |
| 2026-05-07 21:13 | -29.26297 | -50.24713 | 12816 ft | 161 kts | 24° |
| 2026-05-07 21:13 | -29.25382 | -50.23963 | 12811 ft | 161 kts | 23° |
| 2026-05-07 21:13 | -29.24481 | -50.23226 | 12809 ft | 161 kts | 24° |
| 2026-05-07 21:13 | -29.23563 | -50.22474 | 12810 ft | 161 kts | 24° |
| 2026-05-07 21:14 | -29.22657 | -50.21732 | 12815 ft | 160 kts | 24° |
| 2026-05-07 21:14 | -29.21750 | -50.20989 | 12812 ft | 160 kts | 24° |
| 2026-05-07 21:14 | -29.20840 | -50.20245 | 12811 ft | 160 kts | 24° |
| 2026-05-07 21:14 | -29.19933 | -50.19503 | 12804 ft | 160 kts | 24° |
| 2026-05-07 21:15 | -29.19037 | -50.18771 | 12808 ft | 160 kts | 24° |
| 2026-05-07 21:15 | -29.18126 | -50.18026 | 12807 ft | 160 kts | 24° |
| 2026-05-07 21:15 | -29.17227 | -50.17289 | 12811 ft | 159 kts | 24° |
| 2026-05-07 21:15 | -29.16329 | -50.16557 | 12811 ft | 160 kts | 24° |
| 2026-05-07 21:16 | -29.15417 | -50.15811 | 12814 ft | 159 kts | 24° |
| 2026-05-07 21:16 | -29.14532 | -50.15087 | 12814 ft | 159 kts | 24° |
| 2026-05-07 21:16 | -29.13628 | -50.14348 | 12814 ft | 159 kts | 24° |
| 2026-05-07 21:16 | -29.12728 | -50.13613 | 12812 ft | 158 kts | 24° |
| 2026-05-07 21:17 | -29.11842 | -50.12889 | 12816 ft | 157 kts | 24° |
| 2026-05-07 21:17 | -29.10939 | -50.12153 | 12815 ft | 158 kts | 24° |
| 2026-05-07 21:17 | -29.10051 | -50.11429 | 12816 ft | 157 kts | 24° |
| 2026-05-07 21:17 | -29.09177 | -50.10714 | 12808 ft | 154 kts | 23° |
| 2026-05-07 21:18 | -29.08310 | -50.10005 | 12809 ft | 152 kts | 23° |
| 2026-05-07 21:18 | -29.07441 | -50.09303 | 12812 ft | 153 kts | 23° |
| 2026-05-07 21:18 | -29.06573 | -50.08597 | 12810 ft | 155 kts | 24° |
| 2026-05-07 21:18 | -29.05696 | -50.07881 | 12813 ft | 156 kts | 24° |
| 2026-05-07 21:19 | -29.04809 | -50.07156 | 12811 ft | 155 kts | 24° |
| 2026-05-07 21:19 | -29.03933 | -50.06441 | 12810 ft | 154 kts | 24° |
| 2026-05-07 21:19 | -29.03061 | -50.05732 | 12815 ft | 155 kts | 24° |
| 2026-05-07 21:19 | -29.02192 | -50.05024 | 12817 ft | 154 kts | 24° |
| 2026-05-07 21:20 | -29.01315 | -50.04310 | 12817 ft | 156 kts | 24° |
| 2026-05-07 21:20 | -29.00426 | -50.03587 | 12811 ft | 155 kts | 24° |
| 2026-05-07 21:20 | -28.99544 | -50.02870 | 12817 ft | 154 kts | 24° |
| 2026-05-07 21:20 | -28.98679 | -50.02167 | 12815 ft | 155 kts | 24° |
| 2026-05-07 21:21 | -28.97789 | -50.01444 | 12819 ft | 156 kts | 24° |
| 2026-05-07 21:21 | -28.96910 | -50.00729 | 12817 ft | 156 kts | 24° |
| 2026-05-07 21:21 | -28.96015 | -50.00004 | 12817 ft | 157 kts | 24° |
| 2026-05-07 21:21 | -28.95133 | -49.99285 | 12815 ft | 158 kts | 24° |
| 2026-05-07 21:22 | -28.94235 | -49.98551 | 12820 ft | 159 kts | 24° |
| 2026-05-07 21:22 | -28.93333 | -49.97820 | 12817 ft | 159 kts | 24° |
| 2026-05-07 21:22 | -28.92427 | -49.97083 | 12822 ft | 159 kts | 24° |
| 2026-05-07 21:22 | -28.91543 | -49.96365 | 12831 ft | 155 kts | 24° |
| 2026-05-07 21:23 | -28.90709 | -49.95673 | 12846 ft | 141 kts | 23° |
| 2026-05-07 21:23 | -28.89977 | -49.95063 | 12827 ft | 112 kts | 20° |
| 2026-05-07 21:23 | -28.89332 | -49.94568 | 12802 ft | 117 kts | 22° |
| 2026-05-07 21:23 | -28.88723 | -49.94074 | 12815 ft | 123 kts | 21° |
| 2026-05-07 21:24 | -28.88001 | -49.93498 | 12825 ft | 130 kts | 25° |
| 2026-05-07 21:24 | -28.87248 | -49.92888 | 12833 ft | 134 kts | 25° |
| 2026-05-07 21:24 | -28.86477 | -49.92258 | 12832 ft | 141 kts | 24° |
| 2026-05-07 21:24 | -28.85653 | -49.91590 | 12826 ft | 147 kts | 26° |
| 2026-05-07 21:25 | -28.84803 | -49.90897 | 12841 ft | 153 kts | 27° |
| 2026-05-07 21:25 | -28.83894 | -49.90162 | 12825 ft | 164 kts | 26° |
| 2026-05-07 21:25 | -28.82960 | -49.89401 | 12839 ft | 169 kts | 27° |
| 2026-05-07 21:25 | -28.81997 | -49.88616 | 12826 ft | 170 kts | 26° |
| 2026-05-07 21:26 | -28.81047 | -49.87839 | 12827 ft | 168 kts | 26° |
| 2026-05-07 21:26 | -28.80098 | -49.87071 | 12826 ft | 165 kts | 25° |
| 2026-05-07 21:26 | -28.79163 | -49.86317 | 12824 ft | 165 kts | 25° |
| 2026-05-07 21:26 | -28.78228 | -49.85562 | 12822 ft | 164 kts | 26° |
| 2026-05-07 21:27 | -28.77306 | -49.84813 | 12817 ft | 163 kts | 25° |
| 2026-05-07 21:27 | -28.76424 | -49.83982 | 12818 ft | 166 kts | 36° |
| 2026-05-07 21:27 | -28.75658 | -49.83011 | 12818 ft | 166 kts | 37° |
| 2026-05-07 21:27 | -28.74871 | -49.82043 | 12817 ft | 165 kts | 36° |
| 2026-05-07 21:28 | -28.74080 | -49.81096 | 12818 ft | 166 kts | 37° |
| 2026-05-07 21:28 | -28.73274 | -49.80134 | 12816 ft | 168 kts | 36° |
| 2026-05-07 21:28 | -28.72469 | -49.79173 | 12815 ft | 170 kts | 36° |
| 2026-05-07 21:28 | -28.71659 | -49.78209 | 12820 ft | 170 kts | 36° |
| 2026-05-07 21:29 | -28.70839 | -49.77226 | 12822 ft | 169 kts | 36° |
| 2026-05-07 21:29 | -28.70059 | -49.76288 | 12832 ft | 162 kts | 36° |
| 2026-05-07 21:29 | -28.69273 | -49.75358 | 12826 ft | 163 kts | 36° |
| 2026-05-07 21:29 | -28.68490 | -49.74428 | 12822 ft | 163 kts | 36° |
| 2026-05-07 21:30 | -28.67698 | -49.73485 | 12823 ft | 165 kts | 36° |
| 2026-05-07 21:30 | -28.66905 | -49.72539 | 12820 ft | 166 kts | 36° |
| 2026-05-07 21:30 | -28.66117 | -49.71598 | 12825 ft | 165 kts | 37° |
| 2026-05-07 21:30 | -28.65324 | -49.70654 | 12812 ft | 163 kts | 37° |
| 2026-05-07 21:31 | -28.64546 | -49.69731 | 12823 ft | 164 kts | 36° |
| 2026-05-07 21:31 | -28.63801 | -49.68833 | 12859 ft | 147 kts | 34° |
| 2026-05-07 21:31 | -28.63074 | -49.67980 | 12824 ft | 151 kts | 35° |
| 2026-05-07 21:31 | -28.62359 | -49.67118 | 12773 ft | 148 kts | 36° |
| 2026-05-07 21:32 | -28.61645 | -49.66273 | 12823 ft | 148 kts | 35° |
| 2026-05-07 21:32 | -28.60924 | -49.65431 | 12831 ft | 152 kts | 35° |
| 2026-05-07 21:32 | -28.60189 | -49.64553 | 12825 ft | 153 kts | 36° |
| 2026-05-07 21:32 | -28.59462 | -49.63682 | 12835 ft | 153 kts | 35° |
| 2026-05-07 21:33 | -28.58717 | -49.62802 | 12829 ft | 154 kts | 36° |
| 2026-05-07 21:33 | -28.57982 | -49.61923 | 12819 ft | 152 kts | 36° |
| 2026-05-07 21:33 | -28.57244 | -49.61046 | 12840 ft | 154 kts | 36° |
| 2026-05-07 21:33 | -28.56492 | -49.60153 | 12830 ft | 157 kts | 37° |
| 2026-05-07 21:34 | -28.55735 | -49.59259 | 12846 ft | 157 kts | 33° |
| 2026-05-07 21:34 | -28.54914 | -49.58459 | 12848 ft | 160 kts | 37° |
| 2026-05-07 21:34 | -28.54174 | -49.57491 | 12843 ft | 161 kts | 38° |
| 2026-05-07 21:34 | -28.53420 | -49.56557 | 12841 ft | 161 kts | 37° |
| 2026-05-07 21:35 | -28.52648 | -49.55637 | 12844 ft | 164 kts | 37° |
| 2026-05-07 21:35 | -28.51849 | -49.54690 | 12838 ft | 166 kts | 37° |
| 2026-05-07 21:35 | -28.51035 | -49.53729 | 12842 ft | 169 kts | 37° |
| 2026-05-07 21:35 | -28.50225 | -49.52732 | 12846 ft | 180 kts | 43° |
| 2026-05-07 21:36 | -28.49520 | -49.51552 | 12836 ft | 182 kts | 48° |
| 2026-05-07 21:36 | -28.48845 | -49.50344 | 12835 ft | 179 kts | 47° |
| 2026-05-07 21:36 | -28.48155 | -49.49162 | 12835 ft | 175 kts | 47° |
| 2026-05-07 21:36 | -28.47484 | -49.48020 | 12829 ft | 175 kts | 46° |
| 2026-05-07 21:37 | -28.46813 | -49.46882 | 12824 ft | 174 kts | 46° |
| 2026-05-07 21:37 | -28.46143 | -49.45744 | 12821 ft | 171 kts | 46° |
| 2026-05-07 21:37 | -28.45491 | -49.44638 | 12826 ft | 169 kts | 45° |
| 2026-05-07 21:37 | -28.44851 | -49.43549 | 12825 ft | 165 kts | 45° |
| 2026-05-07 21:38 | -28.44217 | -49.42471 | 12843 ft | 164 kts | 45° |
| 2026-05-07 21:38 | -28.43571 | -49.41382 | 12842 ft | 166 kts | 46° |
| 2026-05-07 21:38 | -28.42927 | -49.40289 | 12843 ft | 168 kts | 46° |
| 2026-05-07 21:38 | -28.42279 | -49.39190 | 12847 ft | 169 kts | 46° |
| 2026-05-07 21:39 | -28.41620 | -49.38070 | 12844 ft | 170 kts | 46° |
| 2026-05-07 21:39 | -28.40967 | -49.36965 | 12845 ft | 170 kts | 46° |
| 2026-05-07 21:39 | -28.40310 | -49.35846 | 12841 ft | 169 kts | 46° |
| 2026-05-07 21:39 | -28.39659 | -49.34743 | 12838 ft | 170 kts | 46° |
| 2026-05-07 21:40 | -28.39001 | -49.33625 | 12842 ft | 171 kts | 46° |
| 2026-05-07 21:40 | -28.38345 | -49.32505 | 12842 ft | 172 kts | 47° |
| 2026-05-07 21:40 | -28.37672 | -49.31364 | 12837 ft | 172 kts | 47° |
| 2026-05-07 21:40 | -28.37017 | -49.30249 | 12839 ft | 171 kts | 47° |
| 2026-05-07 21:41 | -28.36350 | -49.29119 | 12841 ft | 171 kts | 46° |
| 2026-05-07 21:41 | -28.35685 | -49.28010 | 12840 ft | 171 kts | 46° |
| 2026-05-07 21:41 | -28.35020 | -49.26890 | 12837 ft | 172 kts | 46° |
| 2026-05-07 21:41 | -28.34352 | -49.25757 | 12837 ft | 172 kts | 46° |
| 2026-05-07 21:42 | -28.33681 | -49.24619 | 12841 ft | 171 kts | 46° |
| 2026-05-07 21:42 | -28.33029 | -49.23514 | 12837 ft | 170 kts | 47° |
| 2026-05-07 21:42 | -28.32367 | -49.22394 | 12846 ft | 171 kts | 46° |
| 2026-05-07 21:42 | -28.31704 | -49.21276 | 12841 ft | 172 kts | 47° |
| 2026-05-07 21:43 | -28.31035 | -49.20145 | 12843 ft | 172 kts | 47° |
| 2026-05-07 21:43 | -28.30371 | -49.19021 | 12843 ft | 174 kts | 46° |
| 2026-05-07 21:43 | -28.29686 | -49.17863 | 12842 ft | 174 kts | 47° |
| 2026-05-07 21:43 | -28.29016 | -49.16732 | 12842 ft | 174 kts | 47° |
| 2026-05-07 21:44 | -28.28342 | -49.15590 | 12836 ft | 173 kts | 47° |
| 2026-05-07 21:44 | -28.27672 | -49.14459 | 12833 ft | 172 kts | 47° |
| 2026-05-07 21:44 | -28.27002 | -49.13330 | 12829 ft | 172 kts | 47° |
| 2026-05-07 21:44 | -28.26343 | -49.12220 | 12830 ft | 172 kts | 47° |
| 2026-05-07 21:45 | -28.25680 | -49.11099 | 12829 ft | 170 kts | 46° |
| 2026-05-07 21:45 | -28.25021 | -49.09992 | 12832 ft | 169 kts | 47° |
| 2026-05-07 21:45 | -28.24357 | -49.08872 | 12833 ft | 169 kts | 47° |
| 2026-05-07 21:45 | -28.23707 | -49.07769 | 12832 ft | 169 kts | 47° |
| 2026-05-07 21:46 | -28.23046 | -49.06665 | 12832 ft | 170 kts | 46° |
| 2026-05-07 21:46 | -28.22380 | -49.05549 | 12835 ft | 171 kts | 47° |
| 2026-05-07 21:46 | -28.21726 | -49.04440 | 12845 ft | 168 kts | 47° |
| 2026-05-07 21:46 | -28.21067 | -49.03337 | 12840 ft | 169 kts | 46° |
| 2026-05-07 21:47 | -28.20410 | -49.02245 | 12847 ft | 170 kts | 47° |
| 2026-05-07 21:47 | -28.19749 | -49.01132 | 12846 ft | 170 kts | 47° |
| 2026-05-07 21:47 | -28.19089 | -49.00019 | 12853 ft | 171 kts | 47° |
| 2026-05-07 21:47 | -28.18419 | -48.98893 | 12850 ft | 172 kts | 47° |
| 2026-05-07 21:48 | -28.17749 | -48.97765 | 12847 ft | 171 kts | 47° |
| 2026-05-07 21:48 | -28.17092 | -48.96659 | 12851 ft | 170 kts | 47° |
| 2026-05-07 21:48 | -28.16432 | -48.95552 | 12854 ft | 171 kts | 47° |
| 2026-05-07 21:48 | -28.15760 | -48.94425 | 12855 ft | 173 kts | 47° |
| 2026-05-07 21:49 | -28.15086 | -48.93294 | 12860 ft | 173 kts | 47° |
| 2026-05-07 21:49 | -28.14416 | -48.92167 | 12857 ft | 173 kts | 47° |
| 2026-05-07 21:49 | -28.13740 | -48.91031 | 12854 ft | 172 kts | 47° |
| 2026-05-07 21:49 | -28.13068 | -48.89907 | 12859 ft | 172 kts | 47° |
| 2026-05-07 21:50 | -28.12401 | -48.88787 | 12852 ft | 172 kts | 47° |
| 2026-05-07 21:50 | -28.11741 | -48.87679 | 12856 ft | 172 kts | 47° |
| 2026-05-07 21:50 | -28.11072 | -48.86562 | 12858 ft | 172 kts | 47° |
| 2026-05-07 21:50 | -28.10395 | -48.85428 | 12859 ft | 172 kts | 47° |
| 2026-05-07 21:51 | -28.09729 | -48.84310 | 12857 ft | 171 kts | 48° |
| 2026-05-07 21:51 | -28.09072 | -48.83202 | 12865 ft | 168 kts | 47° |
| 2026-05-07 21:51 | -28.08408 | -48.82092 | 12861 ft | 169 kts | 47° |
| 2026-05-07 21:51 | -28.07754 | -48.80998 | 12869 ft | 170 kts | 47° |
| 2026-05-07 21:52 | -28.07095 | -48.79896 | 12865 ft | 170 kts | 47° |
| 2026-05-07 21:52 | -28.06436 | -48.78792 | 12871 ft | 170 kts | 47° |
| 2026-05-07 21:52 | -28.05765 | -48.77673 | 12868 ft | 172 kts | 48° |
| 2026-05-07 21:52 | -28.05091 | -48.76542 | 12871 ft | 172 kts | 48° |
| 2026-05-07 21:53 | -28.04424 | -48.75427 | 12873 ft | 172 kts | 47° |
| 2026-05-07 21:53 | -28.03756 | -48.74315 | 12873 ft | 173 kts | 48° |
| 2026-05-07 21:53 | -28.03085 | -48.73192 | 12874 ft | 173 kts | 48° |
| 2026-05-07 21:53 | -28.02409 | -48.72060 | 12874 ft | 173 kts | 48° |
| 2026-05-07 21:54 | -28.01750 | -48.70961 | 12878 ft | 173 kts | 48° |
| 2026-05-07 21:54 | -28.01068 | -48.69825 | 12874 ft | 175 kts | 48° |
| 2026-05-07 21:54 | -28.00394 | -48.68695 | 12877 ft | 175 kts | 48° |
| 2026-05-07 21:54 | -27.99705 | -48.67547 | 12877 ft | 175 kts | 48° |
| 2026-05-07 21:55 | -27.99030 | -48.66422 | 12875 ft | 175 kts | 48° |
| 2026-05-07 21:55 | -27.98345 | -48.65279 | 12875 ft | 175 kts | 48° |
| 2026-05-07 21:55 | -27.97664 | -48.64144 | 12871 ft | 175 kts | 48° |
| 2026-05-07 21:55 | -27.96984 | -48.63009 | 12864 ft | 172 kts | 49° |
| 2026-05-07 21:56 | -27.96316 | -48.61894 | 12865 ft | 172 kts | 48° |
| 2026-05-07 21:56 | -27.95649 | -48.60782 | 12863 ft | 171 kts | 48° |
| 2026-05-07 21:56 | -27.94977 | -48.59665 | 12858 ft | 171 kts | 48° |
| 2026-05-07 21:56 | -27.94306 | -48.58549 | 12855 ft | 171 kts | 48° |
| 2026-05-07 21:57 | -27.93646 | -48.57450 | 12855 ft | 170 kts | 48° |
| 2026-05-07 21:57 | -27.92977 | -48.56335 | 12852 ft | 170 kts | 49° |
| 2026-05-07 21:57 | -27.92315 | -48.55234 | 12852 ft | 170 kts | 49° |
| 2026-05-07 21:57 | -27.91657 | -48.54140 | 12851 ft | 170 kts | 49° |
| 2026-05-07 21:58 | -27.90994 | -48.53037 | 12850 ft | 169 kts | 49° |
| 2026-05-07 21:58 | -27.90334 | -48.51941 | 12853 ft | 169 kts | 49° |
| 2026-05-07 21:58 | -27.89671 | -48.50839 | 12853 ft | 169 kts | 49° |
| 2026-05-07 21:58 | -27.89011 | -48.49742 | 12853 ft | 169 kts | 49° |
| 2026-05-07 21:59 | -27.88344 | -48.48634 | 12851 ft | 169 kts | 49° |
| 2026-05-07 21:59 | -27.87685 | -48.47540 | 12848 ft | 169 kts | 49° |
| 2026-05-07 21:59 | -27.87022 | -48.46439 | 12851 ft | 169 kts | 49° |
| 2026-05-07 21:59 | -27.86370 | -48.45355 | 12846 ft | 161 kts | 49° |
| 2026-05-07 22:00 | -27.85816 | -48.44419 | 12834 ft | 127 kts | 46° |
| 2026-05-07 22:00 | -27.85383 | -48.43698 | 12783 ft | 99 kts | 44° |
| 2026-05-07 22:00 | -27.84979 | -48.43053 | 12378 ft | 106 kts | 42° |
| 2026-05-07 22:00 | -27.84398 | -48.42558 | 11907 ft | 108 kts | 21° |
| 2026-05-07 22:01 | -27.83735 | -48.42119 | 11462 ft | 114 kts | 24° |
| 2026-05-07 22:01 | -27.83029 | -48.41639 | 11009 ft | 117 kts | 23° |
| 2026-05-07 22:01 | -27.82319 | -48.41156 | 10439 ft | 127 kts | 24° |
| 2026-05-07 22:01 | -27.81530 | -48.40619 | 9814 ft | 136 kts | 24° |
| 2026-05-07 22:02 | -27.80702 | -48.40054 | 9093 ft | 141 kts | 24° |
| 2026-05-07 22:02 | -27.79860 | -48.39477 | 8384 ft | 143 kts | 24° |
| 2026-05-07 22:02 | -27.78998 | -48.38889 | 7672 ft | 145 kts | 23° |
| 2026-05-07 22:02 | -27.78132 | -48.38299 | 6976 ft | 145 kts | 22° |
| 2026-05-07 22:03 | -27.77232 | -48.37859 | 6280 ft | 139 kts | 2° |
| 2026-05-07 22:03 | -27.76293 | -48.37962 | 5551 ft | 135 kts | 340° |
| 2026-05-07 22:03 | -27.75521 | -48.38530 | 4846 ft | 136 kts | 317° |
| 2026-05-07 22:03 | -27.74992 | -48.39441 | 4118 ft | 139 kts | 307° |
| 2026-05-07 22:04 | -27.74502 | -48.40369 | 3410 ft | 139 kts | 309° |
| 2026-05-07 22:04 | -27.73995 | -48.41312 | 2701 ft | 140 kts | 309° |
| 2026-05-07 22:04 | -27.73488 | -48.42261 | 2048 ft | 138 kts | 308° |
| 2026-05-07 22:04 | -27.73036 | -48.43109 | 1950 ft | 127 kts | 310° |
| 2026-05-07 22:05 | -27.72562 | -48.43976 | 1796 ft | 130 kts | 309° |
| 2026-05-07 22:05 | -27.72097 | -48.44836 | 1630 ft | 126 kts | 308° |
| 2026-05-07 22:05 | -27.71648 | -48.45664 | 1468 ft | 122 kts | 308° |
| 2026-05-07 22:05 | -27.71229 | -48.46452 | 1316 ft | 111 kts | 308° |
| 2026-05-07 22:06 | -27.70862 | -48.47154 | 1164 ft | 98 kts | 310° |
| 2026-05-07 22:06 | -27.70514 | -48.47799 | 1036 ft | 93 kts | 307° |
| 2026-05-07 22:06 | -27.70190 | -48.48402 | 923 ft | 89 kts | 306° |
| 2026-05-07 22:06 | -27.69873 | -48.48992 | 817 ft | 86 kts | 307° |
| 2026-05-07 22:07 | -27.69520 | -48.49633 | 731 ft | 109 kts | 307° |
| 2026-05-07 22:07 | -27.69096 | -48.50439 | 628 ft | 127 kts | 302° |
| 2026-05-07 22:07 | -27.68647 | -48.51279 | 473 ft | 121 kts | 304° |
| 2026-05-07 22:07 | -27.68241 | -48.52055 | 324 ft | 112 kts | 305° |
| 2026-05-07 22:08 | -27.67846 | -48.52788 | 123 ft | 107 kts | 313° |
| 2026-05-07 22:08 | -27.67476 | -48.53448 | 28 ft | 85 kts | 306° |
| 2026-05-07 22:08 | -27.67238 | -48.53882 | 18 ft | 34 kts | 300° |
| 2026-05-07 22:08 | -27.67217 | -48.53922 | 19 ft | 0 kts | 303° |